createdAt,value
2023-02-19T00:01:21.841Z,9.40
2023-02-19T00:03:52.262Z,9.30
2023-02-19T00:06:19.845Z,9.40
2023-02-19T00:08:46.661Z,9.30
2023-02-19T00:11:15.955Z,9.40
2023-02-19T00:13:45.053Z,9.50
2023-02-19T00:16:22.859Z,9.30
2023-02-19T00:18:49.825Z,9.20
2023-02-19T00:21:17.407Z,9.40
2023-02-19T00:23:44.227Z,9.10
2023-02-19T00:26:18.666Z,9.30
2023-02-19T00:28:48.830Z,9.20
2023-02-19T00:31:17.846Z,9.40
2023-02-19T00:33:45.715Z,9.30
2023-02-19T00:36:12.428Z,9.40
2023-02-19T00:38:40.467Z,9.30
2023-02-19T00:41:19.011Z,9.20
2023-02-19T00:43:47.401Z,9.30
2023-02-19T00:46:15.069Z,9.30
2023-02-19T00:48:41.646Z,9.20
2023-02-19T00:51:08.492Z,9.00
2023-02-19T00:53:35.188Z,9.10
2023-02-19T00:56:01.719Z,9.20
2023-02-19T00:58:28.376Z,9.20
2023-02-19T01:00:54.943Z,9.40
2023-02-19T01:03:22.635Z,9.20
2023-02-19T01:05:50.540Z,9.30
2023-02-19T01:08:17.478Z,9.40
2023-02-19T01:10:44.462Z,9.30
2023-02-19T01:13:11.088Z,9.30
2023-02-19T01:15:37.829Z,9.30
2023-02-19T01:18:04.579Z,9.30
2023-02-19T01:20:31.230Z,9.30
2023-02-19T01:22:57.730Z,9.30
2023-02-19T01:25:24.496Z,9.30
2023-02-19T01:27:51.065Z,9.40
2023-02-19T01:30:17.732Z,9.40
2023-02-19T01:32:44.764Z,9.40
2023-02-19T01:35:11.322Z,9.00
2023-02-19T01:37:37.820Z,8.70
2023-02-19T01:40:04.836Z,8.30
2023-02-19T01:42:31.442Z,8.30
2023-02-19T01:45:24.401Z,8.30
2023-02-19T01:48:00.761Z,8.70
2023-02-19T01:50:29.012Z,8.60
2023-02-19T01:52:55.843Z,9.00
2023-02-19T01:55:22.626Z,9.20
2023-02-19T01:57:52.323Z,9.20
2023-02-19T02:00:19.069Z,8.80
2023-02-19T02:02:49.882Z,8.60
2023-02-19T02:05:36.249Z,8.60
2023-02-19T02:08:21.964Z,8.40
2023-02-19T02:10:49.023Z,8.30
2023-02-19T02:13:15.780Z,8.60
2023-02-19T02:15:51.580Z,8.60
2023-02-19T02:18:36.479Z,8.70
2023-02-19T02:21:12.407Z,8.70
2023-02-19T02:24:00.637Z,9.00
2023-02-19T02:26:56.403Z,8.70
2023-02-19T02:29:29.880Z,8.30
2023-02-19T02:32:04.275Z,7.90
2023-02-19T02:34:39.865Z,8.20
2023-02-19T02:37:08.062Z,8.30
2023-02-19T02:39:36.607Z,8.10
2023-02-19T02:42:24.922Z,7.70
2023-02-19T02:45:37.600Z,7.60
2023-02-19T02:48:34.729Z,7.10
2023-02-19T02:51:06.753Z,7.30
2023-02-19T02:54:06.050Z,7.40
2023-02-19T02:56:34.511Z,7.30
2023-02-19T02:59:02.798Z,7.10
2023-02-19T03:01:53.561Z,7.10
2023-02-19T03:04:34.207Z,7.20
2023-02-19T03:07:05.806Z,7.30
2023-02-19T03:09:41.310Z,7.20
2023-02-19T03:12:32.774Z,7.20
2023-02-19T03:15:20.335Z,7.30
2023-02-19T03:18:11.041Z,7.60
2023-02-19T03:20:42.241Z,7.40
2023-02-19T03:23:09.683Z,7.50
2023-02-19T03:25:56.547Z,7.30
2023-02-19T03:28:54.380Z,6.90
2023-02-19T03:31:24.137Z,7.10
2023-02-19T03:33:53.876Z,7.40
2023-02-19T03:36:27.683Z,7.10
2023-02-19T03:39:07.742Z,6.70
2023-02-19T03:41:56.252Z,7.00
2023-02-19T03:44:32.987Z,7.00
2023-02-19T03:47:04.929Z,6.50
2023-02-19T03:49:51.904Z,6.20
2023-02-19T03:52:31.775Z,5.80
2023-02-19T03:55:06.957Z,5.80
2023-02-19T03:57:43.845Z,5.80
2023-02-19T04:00:17.232Z,5.40
2023-02-19T04:03:08.300Z,5.30
2023-02-19T04:05:37.739Z,5.50
2023-02-19T04:08:11.469Z,5.50
2023-02-19T04:10:45.122Z,5.50
2023-02-19T04:13:29.526Z,5.20
2023-02-19T04:16:00.478Z,5.70
2023-02-19T04:18:31.462Z,5.50
2023-02-19T04:20:58.912Z,5.50
2023-02-19T04:23:26.833Z,6.20
2023-02-19T04:25:56.847Z,6.70
2023-02-19T04:28:23.680Z,6.10
2023-02-19T04:30:50.405Z,5.70
2023-02-19T04:33:16.945Z,6.20
2023-02-19T04:35:43.440Z,6.70
2023-02-19T04:38:10.217Z,7.00
2023-02-19T04:40:36.831Z,6.60
2023-02-19T04:43:03.366Z,6.80
2023-02-19T04:45:29.880Z,6.30
2023-02-19T04:47:58.773Z,6.20
2023-02-19T04:50:26.001Z,6.20
2023-02-19T04:52:52.545Z,6.20
2023-02-19T04:55:19.003Z,5.90
2023-02-19T04:57:45.568Z,5.80
2023-02-19T05:00:13.192Z,6.00
2023-02-19T05:02:39.764Z,6.10
2023-02-19T05:05:06.535Z,5.90
2023-02-19T05:07:33.592Z,5.60
2023-02-19T05:10:00.153Z,5.60
2023-02-19T05:12:27.064Z,5.60
2023-02-19T05:14:53.638Z,5.30
2023-02-19T05:17:20.325Z,5.20
2023-02-19T05:19:47.027Z,5.30
2023-02-19T05:22:16.270Z,5.40
2023-02-19T05:24:42.856Z,5.00
2023-02-19T05:27:09.410Z,5.20
2023-02-19T05:29:35.931Z,5.30
2023-02-19T05:32:02.548Z,5.10
2023-02-19T05:34:29.299Z,5.30
2023-02-19T05:36:55.800Z,6.10
2023-02-19T05:39:22.324Z,6.00
2023-02-19T05:41:48.866Z,5.90
2023-02-19T05:44:15.370Z,5.60
2023-02-19T05:46:42.000Z,5.80
2023-02-19T05:49:08.612Z,6.00
2023-02-19T05:54:48.207Z,6.20
2023-02-19T05:57:14.715Z,6.40
2023-02-19T05:59:41.216Z,6.70
2023-02-19T06:02:09.162Z,6.50
2023-02-19T06:04:36.116Z,6.70
2023-02-19T06:07:02.646Z,6.60
2023-02-19T06:09:29.257Z,6.30
2023-02-19T06:11:55.908Z,6.60
2023-02-19T06:14:22.431Z,6.70
2023-02-19T06:16:49.062Z,6.50
2023-02-19T06:19:15.689Z,6.30
2023-02-19T06:21:42.231Z,6.60
2023-02-19T06:24:09.594Z,6.60
2023-02-19T06:26:36.135Z,6.60
2023-02-19T06:29:02.951Z,6.60
2023-02-19T06:31:29.609Z,6.30
2023-02-19T06:33:56.206Z,6.40
2023-02-19T06:36:23.533Z,6.40
2023-02-19T06:38:50.137Z,6.20
2023-02-19T06:41:17.375Z,6.20
2023-02-19T06:43:44.031Z,6.50
2023-02-19T06:46:11.951Z,6.70
2023-02-19T06:48:39.139Z,6.70
2023-02-19T06:51:05.839Z,6.70
2023-02-19T06:53:32.388Z,6.90
2023-02-19T06:56:00.193Z,7.00
2023-02-19T06:58:27.131Z,7.00
2023-02-19T07:00:54.178Z,6.90
2023-02-19T07:03:20.972Z,6.80
2023-02-19T07:05:47.731Z,7.10
2023-02-19T07:08:14.402Z,7.00
2023-02-19T07:10:40.930Z,7.00
2023-02-19T07:13:07.471Z,6.70
2023-02-19T07:15:34.009Z,6.60
2023-02-19T07:18:00.577Z,6.50
2023-02-19T07:20:27.080Z,6.50
2023-02-19T07:22:53.776Z,6.50
2023-02-19T07:25:20.558Z,6.70
2023-02-19T07:27:47.088Z,6.90
2023-02-19T07:30:13.763Z,6.90
2023-02-19T07:32:45.279Z,6.80
2023-02-19T07:35:11.946Z,6.90
2023-02-19T07:37:38.535Z,6.80
2023-02-19T07:40:06.052Z,6.90
2023-02-19T07:42:33.102Z,6.80
2023-02-19T07:45:00.708Z,6.80
2023-02-19T07:47:27.339Z,6.70
2023-02-19T07:49:53.820Z,6.50
2023-02-19T07:52:20.377Z,6.20
2023-02-19T07:54:46.922Z,6.10
2023-02-19T07:57:22.584Z,6.00
2023-02-19T07:59:49.151Z,6.20
2023-02-19T08:02:36.185Z,6.20
2023-02-19T08:05:03.444Z,6.70
2023-02-19T08:07:34.141Z,6.70
2023-02-19T08:10:19.803Z,6.40
2023-02-19T08:13:04.963Z,6.90
2023-02-19T08:15:32.888Z,7.10
2023-02-19T08:17:59.395Z,6.90
2023-02-19T08:20:26.027Z,7.30
2023-02-19T08:22:52.603Z,7.10
2023-02-19T08:25:19.133Z,7.40
2023-02-19T08:27:46.040Z,7.10
2023-02-19T08:30:12.875Z,7.30
2023-02-19T08:32:39.415Z,7.90
2023-02-19T08:35:06.432Z,8.10
2023-02-19T08:37:33.002Z,8.00
2023-02-19T08:39:59.543Z,7.80
2023-02-19T08:42:29.115Z,8.20
2023-02-19T08:44:56.243Z,8.40
2023-02-19T08:47:22.878Z,8.60
2023-02-19T08:49:49.519Z,8.50
2023-02-19T08:52:16.045Z,8.10
2023-02-19T08:54:42.558Z,8.40
2023-02-19T08:57:09.393Z,8.40
2023-02-19T08:59:35.980Z,8.50
2023-02-19T09:02:02.618Z,9.00
2023-02-19T09:04:29.208Z,9.20
2023-02-19T09:06:55.802Z,8.70
2023-02-19T09:09:22.527Z,8.70
2023-02-19T09:11:49.371Z,8.30
2023-02-19T09:14:15.907Z,8.80
2023-02-19T09:16:42.398Z,9.40
2023-02-19T09:19:08.942Z,9.30
2023-02-19T09:21:35.466Z,9.20
2023-02-19T09:24:01.968Z,9.20
2023-02-19T09:26:28.522Z,9.00
2023-02-19T09:28:55.065Z,7.80
2023-02-19T09:31:21.774Z,8.10
2023-02-19T09:33:48.841Z,7.90
2023-02-19T09:36:16.329Z,8.20
2023-02-19T09:38:42.876Z,8.60
2023-02-19T09:41:33.220Z,8.00
2023-02-19T09:44:01.045Z,8.30
2023-02-19T09:46:32.547Z,8.50
2023-02-19T09:49:04.715Z,8.70
2023-02-19T09:51:33.941Z,8.30
2023-02-19T09:54:01.311Z,8.20
2023-02-19T09:56:27.952Z,7.50
2023-02-19T09:58:56.610Z,7.70
2023-02-19T10:01:26.758Z,8.20
2023-02-19T10:03:53.318Z,7.70
2023-02-19T10:06:25.285Z,8.00
2023-02-19T10:09:14.340Z,8.60
2023-02-19T10:11:41.859Z,8.60
2023-02-19T10:14:13.876Z,9.20
2023-02-19T10:16:42.427Z,9.00
2023-02-19T10:19:13.222Z,9.20
2023-02-19T10:21:40.101Z,9.70
2023-02-19T10:24:07.491Z,10.30
2023-02-19T10:26:36.918Z,10.60
2023-02-19T10:29:04.267Z,10.70
2023-02-19T10:31:32.786Z,10.80
2023-02-19T10:34:01.920Z,9.90
2023-02-19T10:36:32.580Z,10.70
2023-02-19T10:39:00.732Z,11.40
2023-02-19T10:41:27.786Z,10.90
2023-02-19T10:44:07.813Z,11.20
2023-02-19T10:46:42.359Z,11.70
2023-02-19T10:49:30.054Z,11.40
2023-02-19T10:51:58.383Z,11.70
2023-02-19T10:54:28.829Z,11.80
2023-02-19T10:56:55.697Z,11.70
2023-02-19T10:59:28.046Z,11.60
2023-02-19T11:01:55.931Z,11.30
2023-02-19T11:04:22.862Z,10.70
2023-02-19T11:06:49.561Z,10.10
2023-02-19T11:09:24.900Z,10.20
2023-02-19T11:11:52.563Z,10.90
2023-02-19T11:14:21.470Z,10.50
2023-02-19T11:16:51.900Z,11.00
2023-02-19T11:19:31.939Z,11.10
2023-02-19T11:21:59.538Z,10.80
2023-02-19T11:24:30.838Z,11.30
2023-02-19T11:26:58.389Z,12.10
2023-02-19T11:29:28.560Z,11.60
2023-02-19T11:32:22.755Z,11.10
2023-02-19T11:34:49.390Z,11.50
2023-02-19T11:37:17.545Z,11.90
2023-02-19T11:39:48.844Z,11.20
2023-02-19T11:42:36.060Z,11.80
2023-02-19T11:45:25.142Z,11.20
2023-02-19T11:48:10.797Z,11.30
2023-02-19T11:50:48.722Z,12.20
2023-02-19T11:53:25.162Z,13.20
2023-02-19T11:56:10.221Z,13.00
2023-02-19T11:58:51.845Z,13.00
2023-02-19T12:01:38.191Z,11.50
2023-02-19T12:04:37.765Z,12.10
2023-02-19T12:07:16.846Z,13.10
2023-02-19T12:09:46.429Z,12.00
2023-02-19T12:12:31.625Z,11.10
2023-02-19T12:15:29.195Z,10.70
2023-02-19T12:18:20.574Z,10.90
2023-02-19T12:20:56.636Z,10.50
2023-02-19T12:23:35.171Z,10.80
2023-02-19T12:26:24.953Z,11.20
2023-02-19T12:29:29.062Z,11.20
2023-02-19T12:32:09.828Z,11.20
2023-02-19T12:35:14.494Z,10.40
2023-02-19T12:37:46.934Z,10.60
2023-02-19T12:40:38.746Z,10.70
2023-02-19T12:43:18.195Z,10.90
2023-02-19T12:45:58.941Z,10.80
2023-02-19T12:48:30.795Z,10.40
2023-02-19T12:51:07.155Z,10.70
2023-02-19T12:53:48.288Z,10.50
2023-02-19T12:56:22.404Z,10.20
2023-02-19T12:58:52.059Z,10.40
2023-02-19T13:01:23.675Z,9.90
2023-02-19T13:03:58.542Z,9.20
2023-02-19T13:06:54.291Z,9.90
2023-02-19T13:09:28.209Z,9.10
2023-02-19T13:12:07.044Z,10.60
2023-02-19T13:14:42.665Z,12.40
2023-02-19T13:17:43.647Z,13.80
2023-02-19T13:20:34.640Z,13.90
2023-02-19T13:23:42.705Z,13.50
2023-02-19T13:26:37.367Z,13.90
2023-02-19T13:29:41.494Z,13.50
2023-02-19T13:32:45.564Z,14.10
2023-02-19T13:35:36.366Z,14.10
2023-02-19T13:38:03.890Z,14.30
2023-02-19T13:40:36.266Z,14.40
2023-02-19T13:43:05.151Z,14.50
2023-02-19T13:45:41.048Z,14.40
2023-02-19T13:48:34.106Z,14.70
2023-02-19T13:51:13.285Z,14.30
2023-02-19T13:53:45.997Z,13.90
2023-02-19T13:56:31.518Z,13.40
2023-02-19T13:59:26.691Z,13.40
2023-02-19T14:01:56.182Z,13.30
2023-02-19T14:04:22.869Z,12.20
2023-02-19T14:07:04.590Z,11.20
2023-02-19T14:09:37.128Z,10.90
2023-02-19T14:12:03.774Z,11.10
2023-02-19T14:14:42.490Z,10.90
2023-02-19T14:17:08.963Z,10.60
2023-02-19T14:19:41.606Z,10.60
2023-02-19T14:22:45.523Z,10.90
2023-02-19T14:25:27.187Z,11.30
2023-02-19T14:28:05.874Z,11.00
2023-02-19T14:30:34.120Z,11.10
2023-02-19T14:33:10.720Z,11.00
2023-02-19T14:35:43.465Z,10.70
2023-02-19T14:38:21.567Z,10.80
2023-02-19T14:40:49.027Z,11.00
2023-02-19T14:43:18.263Z,10.90
2023-02-19T14:45:51.787Z,10.40
2023-02-19T14:48:41.663Z,10.40
2023-02-19T14:51:28.296Z,10.50
2023-02-19T14:53:56.385Z,10.80
2023-02-19T14:56:32.161Z,10.80
2023-02-19T14:59:14.206Z,11.00
2023-02-19T15:01:41.035Z,10.70
2023-02-19T15:04:22.656Z,9.90
2023-02-19T15:06:49.487Z,9.70
2023-02-19T15:09:16.619Z,10.00
2023-02-19T15:11:43.692Z,10.50
2023-02-19T15:14:19.400Z,10.80
2023-02-19T15:16:46.207Z,10.80
2023-02-19T15:19:13.844Z,10.50
2023-02-19T15:21:45.466Z,10.60
2023-02-19T15:24:14.678Z,10.40
2023-02-19T15:26:43.544Z,10.50
2023-02-19T15:29:13.160Z,10.70
2023-02-19T15:31:49.946Z,10.90
2023-02-19T15:34:20.873Z,10.80
2023-02-19T15:36:53.110Z,10.80
2023-02-19T15:39:23.984Z,10.70
2023-02-19T15:41:59.126Z,10.50
2023-02-19T15:44:28.726Z,10.40
2023-02-19T15:46:55.680Z,10.20
2023-02-19T15:49:31.039Z,9.60
2023-02-19T15:52:02.278Z,9.90
2023-02-19T15:54:35.966Z,10.00
2023-02-19T15:57:06.594Z,10.10
2023-02-19T15:59:41.376Z,9.70
2023-02-19T16:02:11.976Z,9.60
2023-02-19T16:04:39.084Z,9.80
2023-02-19T16:07:05.826Z,10.10
2023-02-19T16:09:36.313Z,10.00
2023-02-19T16:12:16.642Z,10.30
2023-02-19T16:14:43.548Z,10.00
2023-02-19T16:17:10.069Z,9.90
2023-02-19T16:19:43.329Z,9.90
2023-02-19T16:22:19.703Z,9.90
2023-02-19T16:24:49.438Z,9.90
2023-02-19T16:27:40.239Z,10.10
2023-02-19T16:30:31.632Z,10.20
2023-02-19T16:33:36.393Z,9.80
2023-02-19T16:36:41.719Z,9.70
2023-02-19T16:39:18.367Z,9.60
2023-02-19T16:41:47.990Z,9.50
2023-02-19T16:44:29.620Z,9.30
2023-02-19T16:49:49.468Z,9.40
2023-02-19T16:52:18.878Z,9.50
2023-02-19T16:54:58.460Z,9.60
2023-02-19T16:57:33.799Z,9.60
2023-02-19T17:00:03.636Z,9.40
2023-02-19T17:02:38.235Z,9.40
2023-02-19T17:05:10.490Z,9.40
2023-02-19T17:07:39.661Z,9.40
2023-02-19T17:10:06.603Z,9.40
2023-02-19T17:12:33.354Z,9.50
2023-02-19T17:15:00.090Z,9.30
2023-02-19T17:17:26.861Z,9.30
2023-02-19T17:19:53.503Z,9.30
2023-02-19T17:22:20.107Z,9.10
2023-02-19T17:24:48.235Z,8.90
2023-02-19T17:27:15.005Z,8.60
2023-02-19T17:29:44.554Z,8.60
2023-02-19T17:32:11.321Z,8.90
2023-02-19T17:34:38.377Z,9.00
2023-02-19T17:37:05.130Z,9.20
2023-02-19T17:39:31.735Z,9.20
2023-02-19T17:41:58.561Z,9.20
2023-02-19T17:44:25.281Z,9.20
2023-02-19T17:46:51.929Z,9.20
2023-02-19T17:49:19.578Z,9.00
2023-02-19T17:51:46.119Z,8.90
2023-02-19T17:54:12.707Z,8.90
2023-02-19T17:56:43.191Z,9.20
2023-02-19T17:59:10.779Z,9.20
2023-02-19T18:01:37.604Z,9.10
2023-02-19T18:04:04.709Z,9.00
2023-02-19T18:06:31.570Z,8.70
2023-02-19T18:08:58.310Z,8.00
2023-02-19T18:11:25.055Z,8.00
2023-02-19T18:13:52.169Z,8.20
2023-02-19T18:16:19.172Z,7.90
2023-02-19T18:18:45.947Z,7.30
2023-02-19T18:21:13.802Z,7.20
2023-02-19T18:23:41.048Z,6.80
2023-02-19T18:26:10.300Z,6.70
2023-02-19T18:28:38.087Z,6.60
2023-02-19T18:31:05.197Z,6.70
2023-02-19T18:33:33.759Z,6.60
2023-02-19T18:36:00.454Z,6.80
2023-02-19T18:38:27.207Z,7.20
2023-02-19T18:40:53.719Z,7.30
2023-02-19T18:43:20.311Z,7.10
2023-02-19T18:45:47.052Z,6.70
2023-02-19T18:48:13.843Z,6.50
2023-02-19T18:50:40.499Z,6.80
2023-02-19T18:53:07.462Z,6.70
2023-02-19T18:55:34.253Z,6.60
2023-02-19T18:58:00.875Z,6.40
2023-02-19T19:00:27.484Z,6.40
2023-02-19T19:02:59.438Z,6.60
2023-02-19T19:05:26.135Z,6.90
2023-02-19T19:07:54.075Z,6.80
2023-02-19T19:10:21.262Z,7.00
2023-02-19T19:12:48.172Z,7.30
2023-02-19T19:15:18.150Z,7.30
2023-02-19T19:17:45.363Z,7.60
2023-02-19T19:20:12.204Z,7.50
2023-02-19T19:22:38.936Z,7.50
2023-02-19T19:25:05.940Z,7.70
2023-02-19T19:27:32.489Z,7.50
2023-02-19T19:29:59.110Z,7.10
2023-02-19T19:32:25.807Z,7.10
2023-02-19T19:34:52.439Z,7.30
2023-02-19T19:37:19.141Z,7.50
2023-02-19T19:39:45.732Z,7.80
2023-02-19T19:42:12.312Z,7.80
2023-02-19T19:44:39.142Z,7.50
2023-02-19T19:47:05.821Z,7.80
2023-02-19T19:49:33.310Z,7.90
2023-02-19T19:52:01.073Z,8.00
2023-02-19T19:54:28.392Z,8.00
2023-02-19T19:56:57.829Z,7.70
2023-02-19T19:59:24.528Z,7.10
2023-02-19T20:01:53.082Z,7.00
2023-02-19T20:04:21.278Z,6.90
2023-02-19T20:06:48.044Z,7.10
2023-02-19T20:09:15.124Z,7.20
2023-02-19T20:11:50.065Z,7.10
2023-02-19T20:14:17.968Z,7.20
2023-02-19T20:16:44.905Z,7.50
2023-02-19T20:19:12.095Z,7.50
2023-02-19T20:21:38.652Z,7.30
2023-02-19T20:24:05.623Z,7.00
2023-02-19T20:26:32.537Z,7.10
2023-02-19T20:28:59.370Z,7.40
2023-02-19T20:31:26.501Z,7.20
2023-02-19T20:33:53.271Z,7.00
2023-02-19T20:36:20.716Z,7.20
2023-02-19T20:38:49.486Z,6.90
2023-02-19T20:41:16.235Z,6.80
2023-02-19T20:43:42.820Z,7.00
2023-02-19T20:46:09.725Z,6.90
2023-02-19T20:48:37.637Z,7.00
2023-02-19T20:51:04.380Z,7.10
2023-02-19T20:53:32.069Z,7.00
2023-02-19T20:55:58.823Z,7.20
2023-02-19T20:58:26.012Z,7.00
2023-02-19T21:00:54.219Z,6.70
2023-02-19T21:03:21.097Z,6.70
2023-02-19T21:05:47.711Z,6.80
2023-02-19T21:08:17.146Z,6.90
2023-02-19T21:10:45.534Z,7.30
2023-02-19T21:13:12.704Z,7.30
2023-02-19T21:15:39.227Z,7.30
2023-02-19T21:18:05.856Z,7.20
2023-02-19T21:20:32.495Z,7.10
2023-02-19T21:22:59.213Z,6.70
2023-02-19T21:25:25.895Z,6.60
2023-02-19T21:27:52.641Z,6.80
2023-02-19T21:30:19.352Z,6.50
2023-02-19T21:32:45.873Z,6.40
2023-02-19T21:35:12.341Z,6.60
2023-02-19T21:37:42.177Z,6.60
2023-02-19T21:40:09.382Z,6.40
2023-02-19T21:42:35.876Z,6.30
2023-02-19T21:45:03.604Z,6.00
2023-02-19T21:47:30.159Z,5.70
2023-02-19T21:49:56.658Z,5.50
2023-02-19T21:52:23.341Z,5.10
2023-02-19T21:54:49.854Z,4.90
2023-02-19T21:57:16.393Z,4.80
2023-02-19T21:59:42.886Z,4.90
2023-02-19T22:02:09.766Z,5.00
2023-02-19T22:04:36.263Z,4.70
2023-02-19T22:07:02.772Z,4.50
2023-02-19T22:09:29.322Z,4.40
2023-02-19T22:11:55.862Z,4.70
2023-02-19T22:14:22.563Z,4.60
2023-02-19T22:16:49.152Z,4.40
2023-02-19T22:19:15.854Z,4.40
2023-02-19T22:21:43.971Z,4.30
2023-02-19T22:24:18.581Z,4.00
2023-02-19T22:26:45.925Z,4.00
2023-02-19T22:29:14.849Z,3.70
2023-02-19T22:31:41.608Z,3.70
2023-02-19T22:34:09.029Z,3.80
2023-02-19T22:36:38.878Z,4.00
2023-02-19T22:39:05.974Z,4.00
2023-02-19T22:41:32.684Z,4.10
2023-02-19T22:43:59.916Z,3.80
2023-02-19T22:46:28.958Z,3.80
2023-02-19T22:48:55.912Z,3.80
2023-02-19T22:51:23.592Z,3.90
2023-02-19T22:53:52.038Z,4.10
2023-02-19T22:56:20.468Z,4.10
2023-02-19T22:58:46.964Z,3.90
2023-02-19T23:01:14.529Z,3.90
2023-02-19T23:04:01.103Z,3.80
2023-02-19T23:06:29.743Z,3.70
2023-02-19T23:08:58.260Z,4.10
2023-02-19T23:11:29.800Z,4.40
2023-02-19T23:13:57.317Z,4.80
2023-02-19T23:16:23.943Z,5.20
2023-02-19T23:18:50.660Z,5.30
2023-02-19T23:21:18.306Z,5.00
2023-02-19T23:23:46.084Z,4.90
2023-02-19T23:26:13.559Z,4.60
2023-02-19T23:28:41.776Z,4.60
2023-02-19T23:31:08.820Z,4.70
2023-02-19T23:33:35.463Z,4.90
2023-02-19T23:36:02.035Z,5.20
2023-02-19T23:38:28.600Z,4.90
2023-02-19T23:40:55.201Z,4.90
2023-02-19T23:43:21.772Z,4.90
2023-02-19T23:45:48.571Z,4.60
2023-02-19T23:48:15.303Z,4.60
2023-02-19T23:50:43.153Z,4.70
2023-02-19T23:53:09.751Z,4.30
2023-02-19T23:55:37.905Z,4.50
2023-02-19T23:58:04.444Z,4.30
